sensor_id;sensor_type;location;lat;lon;timestamp;pressure;altitude;pressure_sealevel;temperature;humidity
37170;BME280;23062;13.952;100.608;2024-01-07T00:03:05;1013.98;;;30.66;52.48
37170;BME280;23062;13.952;100.608;2024-01-07T00:07:51;1014.07;;;30.42;52.78
37170;BME280;23062;13.952;100.608;2024-01-07T00:12:35;1014.13;;;30.65;52.54
37170;BME280;23062;13.952;100.608;2024-01-07T00:17:19;1014.25;;;30.67;52.60
37170;BME280;23062;13.952;100.608;2024-01-07T00:22:03;1014.34;;;30.63;52.27
37170;BME280;23062;13.952;100.608;2024-01-07T00:26:47;1014.41;;;30.62;52.41
37170;BME280;23062;13.952;100.608;2024-01-07T00:31:23;1014.46;;;30.65;52.17
37170;BME280;23062;13.952;100.608;2024-01-07T00:36:03;1014.55;;;30.65;52.09
37170;BME280;23062;13.952;100.608;2024-01-07T00:40:47;1014.62;;;30.58;52.03
37170;BME280;23062;13.952;100.608;2024-01-07T00:45:32;1014.65;;;30.60;51.80
37170;BME280;23062;13.952;100.608;2024-01-07T00:50:17;1014.79;;;30.57;51.65
37170;BME280;23062;13.952;100.608;2024-01-07T00:55:00;1014.83;;;30.55;51.54
37170;BME280;23062;13.952;100.608;2024-01-07T00:59:41;1014.94;;;30.55;51.33
37170;BME280;23062;13.952;100.608;2024-01-07T01:04:21;1015.04;;;30.58;51.14
37170;BME280;23062;13.952;100.608;2024-01-07T01:09:06;1015.13;;;30.66;51.64
37170;BME280;23062;13.952;100.608;2024-01-07T01:13:50;1015.23;;;30.67;51.62
37170;BME280;23062;13.952;100.608;2024-01-07T01:18:34;1015.33;;;30.66;51.29
37170;BME280;23062;13.952;100.608;2024-01-07T01:23:18;1015.34;;;30.67;50.91
37170;BME280;23062;13.952;100.608;2024-01-07T01:28:04;1015.36;;;30.64;50.49
37170;BME280;23062;13.952;100.608;2024-01-07T01:32:41;1015.39;;;30.66;50.26
37170;BME280;23062;13.952;100.608;2024-01-07T01:37:21;1015.47;;;30.39;51.11
37170;BME280;23062;13.952;100.608;2024-01-07T01:42:07;1015.54;;;30.33;51.39
37170;BME280;23062;13.952;100.608;2024-01-07T01:46:45;1015.61;;;30.35;51.19
37170;BME280;23062;13.952;100.608;2024-01-07T01:51:29;1015.68;;;30.31;51.41
37170;BME280;23062;13.952;100.608;2024-01-07T01:56:19;1015.67;;;30.33;51.57
37170;BME280;23062;13.952;100.608;2024-01-07T02:01:05;1015.73;;;30.46;51.77
37170;BME280;23062;13.952;100.608;2024-01-07T02:05:42;1015.73;;;30.49;51.43
37170;BME280;23062;13.952;100.608;2024-01-07T02:10:27;1015.73;;;30.49;50.89
37170;BME280;23062;13.952;100.608;2024-01-07T02:15:14;1015.63;;;30.30;50.48
37170;BME280;23062;13.952;100.608;2024-01-07T02:19:52;1015.69;;;30.51;50.54
37170;BME280;23062;13.952;100.608;2024-01-07T02:24:38;1015.66;;;30.56;50.35
37170;BME280;23062;13.952;100.608;2024-01-07T02:29:17;1015.68;;;30.60;49.66
37170;BME280;23062;13.952;100.608;2024-01-07T02:33:59;1015.64;;;30.55;49.73
37170;BME280;23062;13.952;100.608;2024-01-07T02:38:45;1015.75;;;30.60;49.31
37170;BME280;23062;13.952;100.608;2024-01-07T02:43:31;1015.72;;;30.60;49.18
37170;BME280;23062;13.952;100.608;2024-01-07T02:48:16;1015.78;;;30.61;49.07
37170;BME280;23062;13.952;100.608;2024-01-07T02:53:04;1015.71;;;30.70;48.81
37170;BME280;23062;13.952;100.608;2024-01-07T02:57:48;1015.75;;;30.69;48.51
37170;BME280;23062;13.952;100.608;2024-01-07T03:02:33;1015.71;;;30.76;48.65
37170;BME280;23062;13.952;100.608;2024-01-07T03:07:19;1015.77;;;30.83;47.79
37170;BME280;23062;13.952;100.608;2024-01-07T03:12:04;1015.76;;;30.89;47.94
37170;BME280;23062;13.952;100.608;2024-01-07T03:16:41;1015.78;;;30.90;47.58
37170;BME280;23062;13.952;100.608;2024-01-07T03:21:24;1015.73;;;30.88;47.33
37170;BME280;23062;13.952;100.608;2024-01-07T03:26:06;1015.68;;;30.98;47.43
37170;BME280;23062;13.952;100.608;2024-01-07T03:30:45;1015.62;;;31.01;46.13
37170;BME280;23062;13.952;100.608;2024-01-07T03:35:30;1015.66;;;31.05;45.93
37170;BME280;23062;13.952;100.608;2024-01-07T03:40:15;1015.57;;;31.03;46.11
37170;BME280;23062;13.952;100.608;2024-01-07T03:44:55;1015.51;;;31.08;46.18
37170;BME280;23062;13.952;100.608;2024-01-07T03:49:46;1015.48;;;31.14;44.96
37170;BME280;23062;13.952;100.608;2024-01-07T03:54:32;1015.41;;;31.14;45.85
37170;BME280;23062;13.952;100.608;2024-01-07T03:59:10;1015.33;;;31.26;45.64
37170;BME280;23062;13.952;100.608;2024-01-07T04:03:54;1015.21;;;31.24;45.25
37170;BME280;23062;13.952;100.608;2024-01-07T04:08:31;1015.09;;;31.33;42.95
37170;BME280;23062;13.952;100.608;2024-01-07T04:13:19;1014.98;;;31.34;43.83
37170;BME280;23062;13.952;100.608;2024-01-07T04:18:05;1014.89;;;31.42;43.15
37170;BME280;23062;13.952;100.608;2024-01-07T04:22:50;1014.76;;;31.43;42.56
37170;BME280;23062;13.952;100.608;2024-01-07T04:27:31;1014.64;;;31.49;42.96
37170;BME280;23062;13.952;100.608;2024-01-07T04:32:16;1014.60;;;31.54;43.25
37170;BME280;23062;13.952;100.608;2024-01-07T04:36:55;1014.49;;;31.54;43.36
37170;BME280;23062;13.952;100.608;2024-01-07T04:41:40;1014.43;;;31.47;43.77
37170;BME280;23062;13.952;100.608;2024-01-07T04:46:25;1014.35;;;31.64;42.64
37170;BME280;23062;13.952;100.608;2024-01-07T04:51:07;1014.28;;;31.69;42.39
37170;BME280;23062;13.952;100.608;2024-01-07T04:55:54;1014.21;;;31.65;42.59
37170;BME280;23062;13.952;100.608;2024-01-07T05:00:38;1014.09;;;31.63;42.21
37170;BME280;23062;13.952;100.608;2024-01-07T05:05:19;1013.99;;;31.69;41.83
37170;BME280;23062;13.952;100.608;2024-01-07T05:10:00;1013.97;;;31.75;41.96
37170;BME280;23062;13.952;100.608;2024-01-07T05:14:44;1013.91;;;31.72;41.91
37170;BME280;23062;13.952;100.608;2024-01-07T05:19:26;1013.82;;;31.73;41.90
37170;BME280;23062;13.952;100.608;2024-01-07T05:24:05;1013.72;;;31.86;41.50
37170;BME280;23062;13.952;100.608;2024-01-07T05:28:50;1013.64;;;31.81;41.67
37170;BME280;23062;13.952;100.608;2024-01-07T05:33:35;1013.47;;;31.75;42.10
37170;BME280;23062;13.952;100.608;2024-01-07T05:38:21;1013.38;;;32.09;40.83
37170;BME280;23062;13.952;100.608;2024-01-07T05:42:57;1013.30;;;31.96;41.82
37170;BME280;23062;13.952;100.608;2024-01-07T05:47:42;1013.12;;;31.81;42.87
37170;BME280;23062;13.952;100.608;2024-01-07T05:52:21;1013.05;;;31.83;42.88
37170;BME280;23062;13.952;100.608;2024-01-07T05:57:06;1012.94;;;31.91;42.67
37170;BME280;23062;13.952;100.608;2024-01-07T06:01:49;1012.75;;;31.83;42.98
37170;BME280;23062;13.952;100.608;2024-01-07T06:06:34;1012.66;;;32.02;42.08
37170;BME280;23062;13.952;100.608;2024-01-07T06:11:14;1012.59;;;32.09;41.44
37170;BME280;23062;13.952;100.608;2024-01-07T06:16:01;1012.61;;;31.99;42.91
37170;BME280;23062;13.952;100.608;2024-01-07T06:20:41;1012.50;;;31.98;42.53
37170;BME280;23062;13.952;100.608;2024-01-07T06:25:19;1012.42;;;32.09;42.16
37170;BME280;23062;13.952;100.608;2024-01-07T06:30:06;1012.32;;;32.09;42.17
37170;BME280;23062;13.952;100.608;2024-01-07T06:34:48;1012.24;;;32.35;41.37
37170;BME280;23062;13.952;100.608;2024-01-07T06:39:30;1012.20;;;32.12;42.18
37170;BME280;23062;13.952;100.608;2024-01-07T06:44:10;1012.02;;;32.27;41.13
37170;BME280;23062;13.952;100.608;2024-01-07T06:48:54;1011.93;;;32.25;41.25
37170;BME280;23062;13.952;100.608;2024-01-07T06:53:31;1011.90;;;32.33;41.30
37170;BME280;23062;13.952;100.608;2024-01-07T06:58:08;1011.75;;;32.23;41.27
37170;BME280;23062;13.952;100.608;2024-01-07T07:02:50;1011.68;;;32.16;41.43
37170;BME280;23062;13.952;100.608;2024-01-07T07:07:36;1011.57;;;32.31;41.30
37170;BME280;23062;13.952;100.608;2024-01-07T07:12:18;1011.55;;;32.19;41.63
37170;BME280;23062;13.952;100.608;2024-01-07T07:17:03;1011.45;;;32.34;40.66
37170;BME280;23062;13.952;100.608;2024-01-07T07:21:41;1011.42;;;32.24;41.09
37170;BME280;23062;13.952;100.608;2024-01-07T07:26:26;1011.44;;;32.18;41.69
37170;BME280;23062;13.952;100.608;2024-01-07T07:31:12;1011.34;;;32.16;41.86
37170;BME280;23062;13.952;100.608;2024-01-07T07:35:54;1011.25;;;32.20;41.92
37170;BME280;23062;13.952;100.608;2024-01-07T07:40:33;1011.17;;;32.29;41.51
37170;BME280;23062;13.952;100.608;2024-01-07T07:45:17;1011.11;;;32.32;41.61
37170;BME280;23062;13.952;100.608;2024-01-07T07:50:00;1011.07;;;32.46;40.62
37170;BME280;23062;13.952;100.608;2024-01-07T07:54:45;1011.02;;;32.36;41.18
37170;BME280;23062;13.952;100.608;2024-01-07T07:59:28;1010.94;;;32.27;41.66
37170;BME280;23062;13.952;100.608;2024-01-07T08:04:14;1010.95;;;32.23;41.81
37170;BME280;23062;13.952;100.608;2024-01-07T08:08:51;1010.95;;;32.24;41.87
37170;BME280;23062;13.952;100.608;2024-01-07T08:13:37;1010.85;;;32.21;42.24
37170;BME280;23062;13.952;100.608;2024-01-07T08:18:22;1010.86;;;32.45;41.27
37170;BME280;23062;13.952;100.608;2024-01-07T08:23:04;1010.88;;;32.37;41.56
37170;BME280;23062;13.952;100.608;2024-01-07T08:27:47;1010.81;;;32.32;42.02
37170;BME280;23062;13.952;100.608;2024-01-07T08:32:33;1010.81;;;32.29;42.18
37170;BME280;23062;13.952;100.608;2024-01-07T08:37:18;1010.80;;;32.33;41.86
37170;BME280;23062;13.952;100.608;2024-01-07T08:42:02;1010.74;;;32.44;40.96
37170;BME280;23062;13.952;100.608;2024-01-07T08:46:48;1010.78;;;32.44;41.00
37170;BME280;23062;13.952;100.608;2024-01-07T08:51:30;1010.74;;;32.44;41.15
37170;BME280;23062;13.952;100.608;2024-01-07T08:56:16;1010.71;;;32.34;41.24
37170;BME280;23062;13.952;100.608;2024-01-07T09:01:01;1010.70;;;32.32;41.47
37170;BME280;23062;13.952;100.608;2024-01-07T09:05:44;1010.65;;;32.39;41.51
37170;BME280;23062;13.952;100.608;2024-01-07T09:10:28;1010.67;;;32.34;42.04
37170;BME280;23062;13.952;100.608;2024-01-07T09:15:15;1010.63;;;32.44;41.37
37170;BME280;23062;13.952;100.608;2024-01-07T09:19:58;1010.60;;;32.37;41.47
37170;BME280;23062;13.952;100.608;2024-01-07T09:24:44;1010.61;;;32.28;41.94
37170;BME280;23062;13.952;100.608;2024-01-07T09:29:32;1010.59;;;32.27;42.23
37170;BME280;23062;13.952;100.608;2024-01-07T09:34:17;1010.58;;;32.32;42.20
37170;BME280;23062;13.952;100.608;2024-01-07T09:39:02;1010.57;;;32.32;42.48
37170;BME280;23062;13.952;100.608;2024-01-07T09:43:47;1010.58;;;32.30;42.34
37170;BME280;23062;13.952;100.608;2024-01-07T09:48:34;1010.57;;;32.28;42.29
37170;BME280;23062;13.952;100.608;2024-01-07T09:53:15;1010.58;;;32.27;42.02
37170;BME280;23062;13.952;100.608;2024-01-07T09:58:01;1010.58;;;32.27;43.85
37170;BME280;23062;13.952;100.608;2024-01-07T10:02:43;1010.59;;;32.18;44.31
37170;BME280;23062;13.952;100.608;2024-01-07T10:07:27;1010.65;;;32.13;45.18
37170;BME280;23062;13.952;100.608;2024-01-07T10:12:06;1010.72;;;32.12;45.48
37170;BME280;23062;13.952;100.608;2024-01-07T10:16:53;1010.68;;;32.06;45.03
37170;BME280;23062;13.952;100.608;2024-01-07T10:21:38;1010.73;;;32.04;45.12
37170;BME280;23062;13.952;100.608;2024-01-07T10:26:17;1010.72;;;32.01;45.67
37170;BME280;23062;13.952;100.608;2024-01-07T10:31:02;1010.85;;;32.08;45.34
37170;BME280;23062;13.952;100.608;2024-01-07T10:35:44;1010.87;;;32.09;45.36
37170;BME280;23062;13.952;100.608;2024-01-07T10:40:23;1010.95;;;32.10;45.23
37170;BME280;23062;13.952;100.608;2024-01-07T10:45:09;1011.03;;;32.09;45.66
37170;BME280;23062;13.952;100.608;2024-01-07T10:49:54;1011.06;;;32.10;46.48
37170;BME280;23062;13.952;100.608;2024-01-07T10:54:40;1011.12;;;32.13;46.79
37170;BME280;23062;13.952;100.608;2024-01-07T10:59:20;1011.15;;;32.10;47.35
37170;BME280;23062;13.952;100.608;2024-01-07T11:04:22;1011.22;;;32.03;47.87
37170;BME280;23062;13.952;100.608;2024-01-07T11:08:58;1011.25;;;32.04;47.75
37170;BME280;23062;13.952;100.608;2024-01-07T11:13:43;1011.38;;;32.00;48.13
37170;BME280;23062;13.952;100.608;2024-01-07T11:18:27;1011.44;;;32.01;48.43
37170;BME280;23062;13.952;100.608;2024-01-07T11:23:31;1011.55;;;31.98;49.08
37170;BME280;23062;13.952;100.608;2024-01-07T11:33:31;1011.71;;;31.91;49.49
37170;BME280;23062;13.952;100.608;2024-01-07T11:38:09;1011.79;;;31.91;49.63
37170;BME280;23062;13.952;100.608;2024-01-07T11:42:47;1011.81;;;31.90;49.66
37170;BME280;23062;13.952;100.608;2024-01-07T11:47:33;1011.83;;;32.00;49.24
37170;BME280;23062;13.952;100.608;2024-01-07T11:52:17;1011.99;;;31.85;50.31
37170;BME280;23062;13.952;100.608;2024-01-07T11:57:04;1011.97;;;31.83;49.87
37170;BME280;23062;13.952;100.608;2024-01-07T12:01:47;1012.05;;;31.81;49.89
37170;BME280;23062;13.952;100.608;2024-01-07T12:06:27;1012.07;;;31.84;49.66
37170;BME280;23062;13.952;100.608;2024-01-07T12:11:16;1012.13;;;31.81;49.54
37170;BME280;23062;13.952;100.608;2024-01-07T12:16:02;1012.17;;;31.78;49.51
37170;BME280;23062;13.952;100.608;2024-01-07T12:20:58;1012.28;;;31.74;49.59
37170;BME280;23062;13.952;100.608;2024-01-07T12:25:43;1012.39;;;31.69;49.81
37170;BME280;23062;13.952;100.608;2024-01-07T12:30:31;1012.43;;;31.68;49.82
37170;BME280;23062;13.952;100.608;2024-01-07T12:35:15;1012.52;;;31.67;49.13
37170;BME280;23062;13.952;100.608;2024-01-07T12:40:00;1012.57;;;31.69;49.31
37170;BME280;23062;13.952;100.608;2024-01-07T12:44:45;1012.61;;;31.67;49.23
37170;BME280;23062;13.952;100.608;2024-01-07T12:49:30;1012.64;;;31.86;48.70
37170;BME280;23062;13.952;100.608;2024-01-07T12:54:14;1012.69;;;31.94;48.80
37170;BME280;23062;13.952;100.608;2024-01-07T12:58:58;1012.71;;;31.97;48.73
37170;BME280;23062;13.952;100.608;2024-01-07T13:03:39;1012.76;;;31.99;48.62
37170;BME280;23062;13.952;100.608;2024-01-07T13:08:21;1012.87;;;32.02;48.50
37170;BME280;23062;13.952;100.608;2024-01-07T13:12:59;1012.89;;;32.02;48.53
37170;BME280;23062;13.952;100.608;2024-01-07T13:17:43;1012.99;;;32.03;48.50
37170;BME280;23062;13.952;100.608;2024-01-07T13:22:21;1013.02;;;32.04;48.57
37170;BME280;23062;13.952;100.608;2024-01-07T13:27:05;1013.08;;;32.04;48.51
37170;BME280;23062;13.952;100.608;2024-01-07T13:31:54;1013.14;;;32.04;48.73
37170;BME280;23062;13.952;100.608;2024-01-07T13:36:39;1013.21;;;32.04;48.73
37170;BME280;23062;13.952;100.608;2024-01-07T13:41:26;1013.22;;;32.04;49.02
37170;BME280;23062;13.952;100.608;2024-01-07T13:46:14;1013.24;;;32.04;49.01
37170;BME280;23062;13.952;100.608;2024-01-07T13:50:58;1013.24;;;32.05;48.91
37170;BME280;23062;13.952;100.608;2024-01-07T13:55:42;1013.30;;;32.04;49.09
37170;BME280;23062;13.952;100.608;2024-01-07T14:00:24;1013.35;;;32.04;49.15
37170;BME280;23062;13.952;100.608;2024-01-07T14:05:01;1013.41;;;32.04;49.30
37170;BME280;23062;13.952;100.608;2024-01-07T14:09:45;1013.40;;;32.04;49.37
37170;BME280;23062;13.952;100.608;2024-01-07T14:14:31;1013.44;;;32.04;49.50
37170;BME280;23062;13.952;100.608;2024-01-07T14:19:18;1013.42;;;32.04;49.52
37170;BME280;23062;13.952;100.608;2024-01-07T14:24:04;1013.45;;;32.03;49.54
37170;BME280;23062;13.952;100.608;2024-01-07T14:28:49;1013.44;;;32.03;49.46
37170;BME280;23062;13.952;100.608;2024-01-07T14:33:33;1013.43;;;32.02;49.78
37170;BME280;23062;13.952;100.608;2024-01-07T14:38:21;1013.51;;;32.03;49.79
37170;BME280;23062;13.952;100.608;2024-01-07T14:43:07;1013.56;;;32.02;49.91
37170;BME280;23062;13.952;100.608;2024-01-07T14:47:52;1013.57;;;32.02;49.80
37170;BME280;23062;13.952;100.608;2024-01-07T14:52:30;1013.59;;;32.02;49.65
37170;BME280;23062;13.952;100.608;2024-01-07T14:57:15;1013.60;;;32.01;49.76
37170;BME280;23062;13.952;100.608;2024-01-07T15:02:00;1013.64;;;32.01;49.97
37170;BME280;23062;13.952;100.608;2024-01-07T15:06:45;1013.60;;;32.01;50.02
37170;BME280;23062;13.952;100.608;2024-01-07T15:11:24;1013.67;;;32.00;50.00
37170;BME280;23062;13.952;100.608;2024-01-07T15:16:08;1013.65;;;32.00;50.16
37170;BME280;23062;13.952;100.608;2024-01-07T15:20:55;1013.66;;;32.00;50.19
37170;BME280;23062;13.952;100.608;2024-01-07T15:25:33;1013.67;;;31.99;50.16
37170;BME280;23062;13.952;100.608;2024-01-07T15:30:16;1013.66;;;31.99;50.16
37170;BME280;23062;13.952;100.608;2024-01-07T15:35:01;1013.66;;;31.98;50.29
37170;BME280;23062;13.952;100.608;2024-01-07T15:39:41;1013.63;;;31.98;50.51
37170;BME280;23062;13.952;100.608;2024-01-07T15:44:22;1013.61;;;31.98;50.04
37170;BME280;23062;13.952;100.608;2024-01-07T15:49:06;1013.61;;;31.98;50.51
37170;BME280;23062;13.952;100.608;2024-01-07T15:53:51;1013.58;;;31.97;50.21
37170;BME280;23062;13.952;100.608;2024-01-07T15:58:35;1013.54;;;31.96;50.28
37170;BME280;23062;13.952;100.608;2024-01-07T16:03:19;1013.51;;;31.95;50.35
37170;BME280;23062;13.952;100.608;2024-01-07T16:07:59;1013.46;;;31.95;50.29
37170;BME280;23062;13.952;100.608;2024-01-07T16:12:35;1013.43;;;31.95;50.40
37170;BME280;23062;13.952;100.608;2024-01-07T16:17:18;1013.45;;;31.94;50.62
37170;BME280;23062;13.952;100.608;2024-01-07T16:22:03;1013.36;;;31.93;50.85
37170;BME280;23062;13.952;100.608;2024-01-07T16:26:49;1013.33;;;31.92;50.74
37170;BME280;23062;13.952;100.608;2024-01-07T16:31:29;1013.28;;;31.91;50.80
37170;BME280;23062;13.952;100.608;2024-01-07T16:36:13;1013.20;;;31.91;51.03
37170;BME280;23062;13.952;100.608;2024-01-07T16:40:59;1013.20;;;31.90;50.95
37170;BME280;23062;13.952;100.608;2024-01-07T16:45:44;1013.13;;;31.90;51.13
37170;BME280;23062;13.952;100.608;2024-01-07T16:50:27;1013.11;;;31.89;51.05
37170;BME280;23062;13.952;100.608;2024-01-07T16:55:11;1013.07;;;31.88;51.11
37170;BME280;23062;13.952;100.608;2024-01-07T16:59:56;1013.14;;;31.89;51.15
37170;BME280;23062;13.952;100.608;2024-01-07T17:04:41;1013.13;;;31.88;51.19
37170;BME280;23062;13.952;100.608;2024-01-07T17:09:24;1013.09;;;31.88;51.16
37170;BME280;23062;13.952;100.608;2024-01-07T17:14:09;1013.07;;;31.87;51.31
37170;BME280;23062;13.952;100.608;2024-01-07T17:18:54;1013.04;;;31.86;51.48
37170;BME280;23062;13.952;100.608;2024-01-07T17:23:39;1013.01;;;31.84;51.50
37170;BME280;23062;13.952;100.608;2024-01-07T17:28:23;1012.94;;;31.83;51.50
37170;BME280;23062;13.952;100.608;2024-01-07T17:33:09;1012.94;;;31.82;51.62
37170;BME280;23062;13.952;100.608;2024-01-07T17:37:46;1012.95;;;31.83;51.59
37170;BME280;23062;13.952;100.608;2024-01-07T17:42:31;1012.99;;;31.82;51.56
37170;BME280;23062;13.952;100.608;2024-01-07T17:47:14;1013.00;;;31.82;51.49
37170;BME280;23062;13.952;100.608;2024-01-07T17:51:58;1012.89;;;31.81;51.38
37170;BME280;23062;13.952;100.608;2024-01-07T17:56:44;1012.86;;;31.80;51.41
37170;BME280;23062;13.952;100.608;2024-01-07T18:01:28;1012.77;;;31.80;51.50
37170;BME280;23062;13.952;100.608;2024-01-07T18:06:14;1012.78;;;31.79;51.52
37170;BME280;23062;13.952;100.608;2024-01-07T18:10:54;1012.78;;;31.78;51.53
37170;BME280;23062;13.952;100.608;2024-01-07T18:15:34;1012.70;;;31.78;51.47
37170;BME280;23062;13.952;100.608;2024-01-07T18:20:11;1012.69;;;31.77;51.38
37170;BME280;23062;13.952;100.608;2024-01-07T18:24:58;1012.59;;;31.77;51.52
37170;BME280;23062;13.952;100.608;2024-01-07T18:29:36;1012.47;;;31.76;51.52
37170;BME280;23062;13.952;100.608;2024-01-07T18:34:22;1012.41;;;31.75;51.52
37170;BME280;23062;13.952;100.608;2024-01-07T18:39:07;1012.33;;;31.73;51.50
37170;BME280;23062;13.952;100.608;2024-01-07T18:43:51;1012.30;;;31.74;51.33
37170;BME280;23062;13.952;100.608;2024-01-07T18:48:36;1012.21;;;31.72;51.28
37170;BME280;23062;13.952;100.608;2024-01-07T18:53:22;1012.23;;;31.71;51.16
37170;BME280;23062;13.952;100.608;2024-01-07T18:58:05;1012.19;;;31.70;51.15
37170;BME280;23062;13.952;100.608;2024-01-07T19:02:54;1012.20;;;31.69;51.03
37170;BME280;23062;13.952;100.608;2024-01-07T19:07:39;1012.16;;;31.69;50.89
37170;BME280;23062;13.952;100.608;2024-01-07T19:12:22;1012.14;;;31.67;50.74
37170;BME280;23062;13.952;100.608;2024-01-07T19:16:59;1012.19;;;31.67;50.67
37170;BME280;23062;13.952;100.608;2024-01-07T19:21:36;1012.09;;;31.66;50.66
37170;BME280;23062;13.952;100.608;2024-01-07T19:26:31;1012.09;;;31.65;50.61
37170;BME280;23062;13.952;100.608;2024-01-07T19:31:13;1012.05;;;31.64;50.63
37170;BME280;23062;13.952;100.608;2024-01-07T19:36:01;1012.09;;;31.64;50.71
37170;BME280;23062;13.952;100.608;2024-01-07T19:40:42;1011.98;;;31.62;50.67
37170;BME280;23062;13.952;100.608;2024-01-07T19:45:19;1012.00;;;31.63;50.72
37170;BME280;23062;13.952;100.608;2024-01-07T19:50:06;1011.95;;;31.61;50.83
37170;BME280;23062;13.952;100.608;2024-01-07T19:54:50;1011.97;;;31.61;50.84
37170;BME280;23062;13.952;100.608;2024-01-07T19:59:27;1011.98;;;31.61;50.93
37170;BME280;23062;13.952;100.608;2024-01-07T20:04:11;1011.95;;;31.60;50.96
37170;BME280;23062;13.952;100.608;2024-01-07T20:08:51;1011.94;;;31.61;50.89
37170;BME280;23062;13.952;100.608;2024-01-07T20:13:37;1011.82;;;31.58;50.91
37170;BME280;23062;13.952;100.608;2024-01-07T20:18:21;1011.80;;;31.57;50.87
37170;BME280;23062;13.952;100.608;2024-01-07T20:23:05;1011.80;;;31.58;50.89
37170;BME280;23062;13.952;100.608;2024-01-07T20:27:49;1011.76;;;31.55;50.87
37170;BME280;23062;13.952;100.608;2024-01-07T20:32:35;1011.75;;;31.54;50.83
37170;BME280;23062;13.952;100.608;2024-01-07T20:37:11;1011.77;;;31.53;50.85
37170;BME280;23062;13.952;100.608;2024-01-07T20:41:56;1011.77;;;31.54;50.87
37170;BME280;23062;13.952;100.608;2024-01-07T20:46:33;1011.79;;;31.53;50.78
37170;BME280;23062;13.952;100.608;2024-01-07T20:51:18;1011.81;;;31.53;50.85
37170;BME280;23062;13.952;100.608;2024-01-07T20:56:05;1011.83;;;31.28;51.08
37170;BME280;23062;13.952;100.608;2024-01-07T21:00:50;1011.90;;;31.13;51.61
37170;BME280;23062;13.952;100.608;2024-01-07T21:05:30;1011.89;;;31.09;51.66
37170;BME280;23062;13.952;100.608;2024-01-07T21:10:17;1011.89;;;31.04;51.96
37170;BME280;23062;13.952;100.608;2024-01-07T21:15:05;1011.90;;;30.99;52.29
37170;BME280;23062;13.952;100.608;2024-01-07T21:19:42;1011.93;;;30.97;52.69
37170;BME280;23062;13.952;100.608;2024-01-07T21:24:28;1011.91;;;30.95;53.09
37170;BME280;23062;13.952;100.608;2024-01-07T21:29:07;1011.97;;;30.86;53.14
37170;BME280;23062;13.952;100.608;2024-01-07T21:33:45;1011.98;;;30.85;53.93
37170;BME280;23062;13.952;100.608;2024-01-07T21:38:22;1012.05;;;29.63;58.13
37170;BME280;23062;13.952;100.608;2024-01-07T21:43:06;1012.04;;;29.44;58.99
37170;BME280;23062;13.952;100.608;2024-01-07T21:47:51;1012.10;;;29.37;59.51
37170;BME280;23062;13.952;100.608;2024-01-07T21:52:34;1012.09;;;29.24;60.04
37170;BME280;23062;13.952;100.608;2024-01-07T21:57:19;1012.18;;;29.20;60.13
37170;BME280;23062;13.952;100.608;2024-01-07T22:02:03;1012.16;;;29.18;60.23
37170;BME280;23062;13.952;100.608;2024-01-07T22:06:40;1012.20;;;29.06;60.30
37170;BME280;23062;13.952;100.608;2024-01-07T22:11:24;1012.19;;;29.04;60.75
37170;BME280;23062;13.952;100.608;2024-01-07T22:16:01;1012.23;;;29.00;61.20
37170;BME280;23062;13.952;100.608;2024-01-07T22:20:45;1012.29;;;28.98;61.34
37170;BME280;23062;13.952;100.608;2024-01-07T22:25:30;1012.33;;;28.95;61.57
37170;BME280;23062;13.952;100.608;2024-01-07T22:30:15;1012.38;;;28.94;61.62
37170;BME280;23062;13.952;100.608;2024-01-07T22:35:00;1012.40;;;28.81;62.01
37170;BME280;23062;13.952;100.608;2024-01-07T22:39:45;1012.42;;;28.88;61.84
37170;BME280;23062;13.952;100.608;2024-01-07T22:44:23;1012.44;;;28.82;62.05
37170;BME280;23062;13.952;100.608;2024-01-07T22:49:01;1012.46;;;28.97;61.81
37170;BME280;23062;13.952;100.608;2024-01-07T22:53:39;1012.57;;;29.46;59.94
37170;BME280;23062;13.952;100.608;2024-01-07T22:58:23;1012.64;;;29.64;58.93
37170;BME280;23062;13.952;100.608;2024-01-07T23:03:00;1012.66;;;29.71;58.84
37170;BME280;23062;13.952;100.608;2024-01-07T23:07:45;1012.77;;;29.76;58.57
37170;BME280;23062;13.952;100.608;2024-01-07T23:12:31;1012.89;;;29.80;58.71
37170;BME280;23062;13.952;100.608;2024-01-07T23:17:15;1012.92;;;29.83;58.55
37170;BME280;23062;13.952;100.608;2024-01-07T23:22:01;1013.00;;;29.86;58.55
37170;BME280;23062;13.952;100.608;2024-01-07T23:26:45;1013.14;;;29.86;58.65
37170;BME280;23062;13.952;100.608;2024-01-07T23:31:26;1013.10;;;29.90;58.11
37170;BME280;23062;13.952;100.608;2024-01-07T23:36:10;1013.20;;;29.91;58.56
37170;BME280;23062;13.952;100.608;2024-01-07T23:40:56;1013.26;;;29.89;58.50
37170;BME280;23062;13.952;100.608;2024-01-07T23:45:33;1013.33;;;29.92;58.40
37170;BME280;23062;13.952;100.608;2024-01-07T23:50:17;1013.38;;;29.91;58.72
37170;BME280;23062;13.952;100.608;2024-01-07T23:55:02;1013.42;;;29.91;58.43
37170;BME280;23062;13.952;100.608;2024-01-07T23:59:47;1013.48;;;29.88;59.15
